Portada
METAR-TAF:

METAR-TAF

Aeropuertos :

Base Aérea de Morón

Morón de la Frontera, España

latitud: 37-09N, longitud: 005-37W, altitud: 87 m

Observación

El informe se hizo hace 1 hora y 6 minutos, a las 22:00 UTC
Viento 5 kt del sur-suroeste, variando entre sur y suroeste
Temperatura 11°C
Humedad 87%
Presión 1011 hPa
Visibilidad 10 km o más
Escasas nubes a una altura de 2100 ft

METAR: LEMO 312200Z 20005KT 170V230 9999 FEW021 11/09 Q1011 NOSIG

Hora: 01:06 (23:06 UTC)

Pronóstico

El informe se hizo hace 3 horas y 6 minutos, a las 20:00 UTC
Pronóstico válido del 31 a las 21 UTC al 01 a las 06 UTC
Viento 7 kt del sur-suroeste
Visibilidad 10 km o más
Escasas nubes a una altura de 2000 ft
Nubes dispersas a una altura de 4000 ft

TAF: LEMO 312000Z 3121/0106 21007KT 9999 FEW020 SCT040

Observaciones y pronósticos meteorológicos de más de 4000 aeropuertos (mensajes METAR y TAF).

Los puntos amarillos y rojos representan las estaciones disponibles.

Ponga el ratón en el punto deseado para ver el nombre de la estación.

Haga clic para ver las observaciones y los pronósticos meteorológicos.

Para cambiar el mapa : haga clic en los botones verdes con una cruz de color negro para hacer un zoom, en el botón verde con un guión para alejar o en las flechas verdes para mapas adyacentes.


METAR-TAF: